Time;durP1;ratioP1;P1;durP2;ratioP2;P2;SDS_P1;SDS_P2;PMS_P1;PMS_P2;Temp;Humidity;BMP_temperature;BMP_pressure;BME280_temperature;BME280_humidity;BME280_pressure;Samples;Min_cycle;Max_cycle;Signal;HPM_P1;HPM_P2
2022/04/09 00:01:34;;;;;;;58.75;3.80;;;;;;;;;;5097824;28;20295;-74
2022/04/09 00:04:01;;;;;;;61.25;3.70;;;;;;;;;;5097889;28;20208;-75
2022/04/09 00:06:28;;;;;;;58.90;3.63;;;;;;;;;;5094685;28;20207;-75
2022/04/09 00:08:55;;;;;;;58.55;3.40;;;;;;;;;;5094149;28;20271;-75
2022/04/09 00:11:23;;;;;;;58.40;3.20;;;;;;;;;;5094843;28;20287;-75
2022/04/09 00:13:50;;;;;;;59.28;3.72;;;;;;;;;;5095067;28;20208;-74
2022/04/09 00:16:17;;;;;;;59.17;3.42;;;;;;;;;;5094861;28;20688;-74
2022/04/09 00:18:45;;;;;;;59.20;3.53;;;;;;;;;;5093694;28;20235;-74
2022/04/09 00:21:13;;;;;;;58.65;3.28;;;;;;;;;;5094390;28;20204;-75
2022/04/09 00:23:40;;;;;;;59.75;3.60;;;;;;;;;;5094505;28;20295;-75
2022/04/09 00:26:07;;;;;;;58.95;3.40;;;;;;;;;;5094474;28;20558;-75
2022/04/09 00:28:34;;;;;;;63.35;3.40;;;;;;;;;;5093467;28;20226;-75
2022/04/09 00:31:01;;;;;;;58.40;3.40;;;;;;;;;;5094432;28;20304;-75
2022/04/09 00:33:28;;;;;;;59.40;3.95;;;;;;;;;;5094144;28;20231;-75
2022/04/09 00:35:57;;;;;;;59.17;3.70;;;;;;;;;;5094090;28;20771;-75
2022/04/09 00:38:26;;;;;;;58.58;3.50;;;;;;;;;;5092604;28;20507;-74
2022/04/09 00:40:53;;;;;;;59.53;3.70;;;;;;;;;;5092816;28;20299;-74
2022/04/09 00:43:21;;;;;;;58.50;3.35;;;;;;;;;;5093995;28;20236;-74
2022/04/09 00:45:49;;;;;;;58.67;3.05;;;;;;;;;;5093888;28;20398;-74
2022/04/09 00:48:16;;;;;;;59.00;3.30;;;;;;;;;;5092769;28;20230;-74
2022/04/09 00:50:43;;;;;;;59.50;3.17;;;;;;;;;;5094061;28;20627;-75
2022/04/09 00:53:13;;;;;;;58.97;3.92;;;;;;;;;;5093801;28;20210;-74
2022/04/09 00:58:26;;;;;;;58.22;3.55;;;;;;;;;;5093135;28;20258;-74
2022/04/09 01:00:53;;;;;;;58.97;3.80;;;;;;;;;;5093588;28;20641;-74
2022/04/09 01:03:21;;;;;;;58.42;3.95;;;;;;;;;;5093887;28;20200;-75
2022/04/09 01:05:49;;;;;;;59.80;3.90;;;;;;;;;;5093655;28;20585;-74
2022/04/09 01:08:18;;;;;;;59.95;4.15;;;;;;;;;;5092961;28;20228;-74
2022/04/09 01:10:46;;;;;;;58.67;4.10;;;;;;;;;;5088248;28;20200;-74
2022/04/09 01:13:14;;;;;;;59.45;4.15;;;;;;;;;;5072982;28;20587;-74
2022/04/09 01:15:41;;;;;;;59.10;3.90;;;;;;;;;;5073540;28;20205;-74
2022/04/09 01:18:08;;;;;;;59.08;3.65;;;;;;;;;;5072648;28;20221;-75
2022/04/09 01:20:35;;;;;;;59.58;4.20;;;;;;;;;;5072082;28;20208;-75
2022/04/09 01:23:04;;;;;;;59.90;4.72;;;;;;;;;;5072835;28;20238;-75
2022/04/09 01:25:31;;;;;;;59.70;4.22;;;;;;;;;;5072860;28;20220;-75
2022/04/09 01:27:58;;;;;;;61.20;4.25;;;;;;;;;;5072002;28;20231;-74
2022/04/09 01:30:26;;;;;;;59.25;4.47;;;;;;;;;;5073096;28;20296;-74
2022/04/09 01:32:53;;;;;;;64.85;4.70;;;;;;;;;;5072816;28;20215;-74
2022/04/09 01:35:20;;;;;;;60.33;4.55;;;;;;;;;;5073275;28;20211;-75
2022/04/09 01:37:47;;;;;;;60.70;4.60;;;;;;;;;;5071975;28;20665;-75
2022/04/09 01:40:16;;;;;;;59.83;4.50;;;;;;;;;;5072591;28;20201;-75
2022/04/09 01:42:43;;;;;;;59.95;5.38;;;;;;;;;;5072192;28;20299;-74
2022/04/09 01:45:10;;;;;;;60.90;4.43;;;;;;;;;;5090890;28;20598;-75
2022/04/09 01:47:41;;;;;;;59.50;4.30;;;;;;;;;;5092273;28;20220;-74
2022/04/09 01:50:09;;;;;;;61.28;4.30;;;;;;;;;;5092794;28;20216;-75
2022/04/09 01:52:36;;;;;;;60.10;4.63;;;;;;;;;;5088308;28;20211;-74
2022/04/09 01:55:04;;;;;;;58.60;4.00;;;;;;;;;;5092873;28;20299;-74
2022/04/09 01:57:32;;;;;;;59.40;4.20;;;;;;;;;;5091798;28;20259;-75
2022/04/09 01:59:59;;;;;;;61.55;4.75;;;;;;;;;;5092560;28;20291;-75
2022/04/09 02:02:27;;;;;;;60.50;4.80;;;;;;;;;;5092329;28;20205;-74
2022/04/09 02:04:54;;;;;;;60.03;4.72;;;;;;;;;;5092469;28;20643;-75
2022/04/09 02:07:22;;;;;;;61.50;5.78;;;;;;;;;;5091665;28;20230;-75
2022/04/09 02:09:50;;;;;;;60.95;5.28;;;;;;;;;;5092218;28;20621;-75
2022/04/09 02:12:17;;;;;;;59.30;4.55;;;;;;;;;;5092358;28;20300;-74
2022/04/09 02:14:46;;;;;;;60.80;5.18;;;;;;;;;;5088679;28;20299;-74
2022/04/09 02:17:13;;;;;;;60.95;5.32;;;;;;;;;;5091032;28;20259;-74
2022/04/09 02:19:40;;;;;;;61.15;5.40;;;;;;;;;;5092521;28;20204;-76
2022/04/09 02:22:07;;;;;;;60.17;5.03;;;;;;;;;;5092449;28;20581;-75
2022/04/09 02:24:35;;;;;;;62.45;5.63;;;;;;;;;;5092587;28;20211;-75
2022/04/09 02:27:02;;;;;;;60.28;5.20;;;;;;;;;;5091922;28;20226;-75
2022/04/09 02:29:29;;;;;;;60.75;5.35;;;;;;;;;;5091572;28;20632;-75
2022/04/09 02:31:58;;;;;;;59.90;4.80;;;;;;;;;;5091595;28;20676;-74
2022/04/09 02:34:26;;;;;;;61.30;5.40;;;;;;;;;;5092172;28;20200;-75
2022/04/09 02:36:53;;;;;;;61.05;5.05;;;;;;;;;;5092088;28;20660;-74
2022/04/09 02:39:21;;;;;;;60.78;5.20;;;;;;;;;;5091308;28;20228;-75
2022/04/09 02:41:50;;;;;;;61.80;5.47;;;;;;;;;;5092079;28;20208;-74
2022/04/09 02:44:17;;;;;;;61.95;6.30;;;;;;;;;;5091781;28;20208;-74
2022/04/09 02:46:45;;;;;;;61.47;5.60;;;;;;;;;;5090996;28;20239;-74
2022/04/09 02:49:14;;;;;;;61.30;4.85;;;;;;;;;;5087864;28;20232;-74
2022/04/09 02:51:42;;;;;;;60.10;5.25;;;;;;;;;;5091994;28;20239;-74
2022/04/09 02:54:15;;;;;;;61.35;5.63;;;;;;;;;;5091811;28;20214;-75
2022/04/09 02:56:42;;;;;;;60.47;5.13;;;;;;;;;;5091714;28;20609;-75
2022/04/09 02:59:10;;;;;;;62.28;5.80;;;;;;;;;;5091316;28;20219;-75
2022/04/09 03:01:37;;;;;;;60.20;5.00;;;;;;;;;;5092011;28;20204;-75
2022/04/09 03:04:04;;;;;;;61.38;5.93;;;;;;;;;;5091695;28;20204;-74
2022/04/09 03:06:33;;;;;;;60.92;5.15;;;;;;;;;;5091617;28;20212;-74
2022/04/09 03:09:00;;;;;;;61.13;5.95;;;;;;;;;;5090928;28;20256;-75
2022/04/09 03:11:27;;;;;;;61.85;5.63;;;;;;;;;;5091445;28;20262;-74
2022/04/09 03:13:54;;;;;;;61.40;5.93;;;;;;;;;;5091517;28;20657;-74
2022/04/09 03:16:21;;;;;;;61.17;6.40;;;;;;;;;;5091704;28;20210;-74
2022/04/09 03:18:48;;;;;;;63.88;6.72;;;;;;;;;;5089921;28;20228;-73
2022/04/09 03:21:16;;;;;;;61.65;6.05;;;;;;;;;;5088597;28;20204;-74
2022/04/09 03:23:44;;;;;;;62.15;5.60;;;;;;;;;;5091499;28;20299;-74
2022/04/09 03:26:11;;;;;;;61.40;5.70;;;;;;;;;;5091728;28;20283;-74
2022/04/09 03:28:39;;;;;;;60.97;5.82;;;;;;;;;;5090552;28;20712;-75
2022/04/09 03:31:06;;;;;;;60.97;5.55;;;;;;;;;;5091436;28;20675;-74
2022/04/09 03:33:33;;;;;;;61.50;5.88;;;;;;;;;;5091511;28;20201;-75
2022/04/09 03:36:01;;;;;;;62.17;5.35;;;;;;;;;;5091447;28;20227;-75
2022/04/09 03:38:28;;;;;;;63.22;6.40;;;;;;;;;;5090878;28;20318;-75
2022/04/09 03:40:57;;;;;;;62.75;6.25;;;;;;;;;;5091301;28;20235;-75
2022/04/09 03:43:26;;;;;;;62.85;6.70;;;;;;;;;;5091982;28;20207;-75
2022/04/09 03:45:53;;;;;;;60.63;5.65;;;;;;;;;;5095262;28;20570;-75
2022/04/09 03:48:20;;;;;;;61.60;6.03;;;;;;;;;;5094650;28;20310;-75
2022/04/09 03:50:47;;;;;;;61.45;5.95;;;;;;;;;;5090755;28;20788;-75
2022/04/09 03:53:19;;;;;;;63.45;6.75;;;;;;;;;;5095035;28;20208;-75
2022/04/09 03:55:46;;;;;;;61.97;6.20;;;;;;;;;;5095153;28;20253;-75
2022/04/09 03:58:15;;;;;;;61.80;6.40;;;;;;;;;;5094281;28;20264;-74
2022/04/09 04:00:42;;;;;;;64.18;6.80;;;;;;;;;;5094992;28;20695;-75
2022/04/09 04:03:10;;;;;;;63.08;7.55;;;;;;;;;;5094940;28;20291;-75
2022/04/09 04:05:37;;;;;;;64.20;7.70;;;;;;;;;;5094997;28;20200;-75
2022/04/09 04:08:05;;;;;;;64.72;6.93;;;;;;;;;;5094045;28;20231;-75
2022/04/09 04:10:32;;;;;;;67.30;8.35;;;;;;;;;;5094749;28;20244;-74
2022/04/09 04:13:00;;;;;;;63.10;7.60;;;;;;;;;;5094715;28;20200;-75
2022/04/09 04:15:29;;;;;;;65.28;8.65;;;;;;;;;;5094732;28;20199;-76
2022/04/09 04:17:56;;;;;;;66.22;8.45;;;;;;;;;;5093822;28;20258;-73
2022/04/09 04:20:24;;;;;;;65.32;8.60;;;;;;;;;;5095400;28;20691;-75
2022/04/09 04:22:52;;;;;;;65.50;10.23;;;;;;;;;;5089112;28;20556;-76
2022/04/09 04:25:19;;;;;;;65.50;8.38;;;;;;;;;;5074602;28;20681;-76
2022/04/09 04:27:47;;;;;;;69.05;9.77;;;;;;;;;;5073292;28;20221;-74
2022/04/09 04:30:15;;;;;;;71.10;10.38;;;;;;;;;;5074547;28;20201;-75
2022/04/09 04:32:44;;;;;;;70.10;10.20;;;;;;;;;;5073700;28;20296;-75
2022/04/09 04:35:11;;;;;;;73.10;9.82;;;;;;;;;;5074169;28;20286;-75
2022/04/09 04:37:39;;;;;;;73.55;11.23;;;;;;;;;;5073912;28;20268;-74
2022/04/09 04:40:06;;;;;;;68.88;9.60;;;;;;;;;;5075081;28;20308;-76
2022/04/09 04:42:33;;;;;;;69.50;10.00;;;;;;;;;;5075765;28;20241;-75
2022/04/09 04:45:01;;;;;;;71.55;11.20;;;;;;;;;;5074468;28;20396;-76
2022/04/09 04:47:28;;;;;;;73.78;11.52;;;;;;;;;;5073542;28;20229;-77
2022/04/09 04:49:56;;;;;;;70.05;10.25;;;;;;;;;;5074204;28;20211;-75
2022/04/09 04:52:23;;;;;;;69.03;10.65;;;;;;;;;;5074083;28;20274;-76
2022/04/09 04:54:51;;;;;;;70.97;9.52;;;;;;;;;;5071897;28;20647;-76
2022/04/09 04:57:18;;;;;;;74.45;10.90;;;;;;;;;;5092795;28;20915;-74
2022/04/09 04:59:45;;;;;;;70.60;10.35;;;;;;;;;;5093597;28;20294;-76
2022/04/09 05:02:12;;;;;;;69.18;9.93;;;;;;;;;;5094101;28;20296;-76
2022/04/09 05:04:40;;;;;;;66.18;9.50;;;;;;;;;;5093909;28;20239;-75
2022/04/09 05:07:09;;;;;;;69.82;11.25;;;;;;;;;;5092983;28;20274;-76
2022/04/09 05:09:36;;;;;;;67.93;9.98;;;;;;;;;;5093684;28;20291;-75
2022/04/09 05:12:03;;;;;;;69.20;9.80;;;;;;;;;;5093587;28;20299;-76
2022/04/09 05:14:30;;;;;;;70.68;10.63;;;;;;;;;;5093687;28;20295;-75
2022/04/09 05:16:59;;;;;;;71.80;12.27;;;;;;;;;;5093986;28;20204;-76
2022/04/09 05:19:26;;;;;;;68.63;10.20;;;;;;;;;;5093583;28;20566;-76
2022/04/09 05:21:54;;;;;;;69.32;10.90;;;;;;;;;;5093772;28;20573;-75
2022/04/09 05:24:22;;;;;;;70.30;10.45;;;;;;;;;;5093774;28;20207;-76
2022/04/09 05:26:49;;;;;;;71.38;11.30;;;;;;;;;;5087828;28;20200;-76
2022/04/09 05:29:16;;;;;;;71.28;11.20;;;;;;;;;;5072923;28;20252;-76
2022/04/09 05:31:44;;;;;;;71.50;10.70;;;;;;;;;;5073049;28;20251;-75
2022/04/09 05:34:11;;;;;;;70.82;11.77;;;;;;;;;;5072938;28;20201;-75
2022/04/09 05:36:38;;;;;;;74.50;10.35;;;;;;;;;;5073117;28;20648;-76
2022/04/09 05:39:05;;;;;;;70.63;11.90;;;;;;;;;;5072318;28;20669;-77
2022/04/09 05:41:34;;;;;;;68.20;10.50;;;;;;;;;;5072676;28;20205;-75
2022/04/09 05:44:01;;;;;;;69.13;11.43;;;;;;;;;;5072783;28;20208;-76
2022/04/09 05:46:28;;;;;;;70.10;11.55;;;;;;;;;;5072834;28;20232;-76
2022/04/09 05:48:55;;;;;;;71.40;12.27;;;;;;;;;;5071564;28;20236;-75
2022/04/09 05:51:24;;;;;;;71.45;11.65;;;;;;;;;;5072653;28;20228;-75
2022/04/09 05:53:51;;;;;;;70.93;11.73;;;;;;;;;;5071810;28;20295;-75
2022/04/09 05:56:18;;;;;;;72.70;11.40;;;;;;;;;;5072450;28;20637;-75
2022/04/09 05:58:47;;;;;;;66.88;9.95;;;;;;;;;;5070381;28;20325;-75
2022/04/09 06:01:14;;;;;;;69.40;10.80;;;;;;;;;;5090884;28;20243;-76
2022/04/09 06:03:41;;;;;;;71.32;11.70;;;;;;;;;;5092825;28;20715;-76
2022/04/09 06:06:08;;;;;;;69.70;10.25;;;;;;;;;;5092444;28;20204;-76
2022/04/09 06:08:35;;;;;;;70.18;10.77;;;;;;;;;;5091829;28;20220;-76
2022/04/09 06:11:02;;;;;;;69.15;11.48;;;;;;;;;;5093650;28;20722;-76
2022/04/09 06:13:30;;;;;;;71.03;11.80;;;;;;;;;;5093083;28;20231;-76
2022/04/09 06:15:58;;;;;;;70.00;11.70;;;;;;;;;;5092430;28;20271;-76
2022/04/09 06:18:26;;;;;;;69.85;12.30;;;;;;;;;;5091956;28;20224;-76
2022/04/09 06:20:53;;;;;;;72.10;12.60;;;;;;;;;;5092379;28;20226;-76
2022/04/09 06:23:20;;;;;;;67.57;10.65;;;;;;;;;;5092523;28;20744;-76
2022/04/09 06:25:47;;;;;;;68.57;10.05;;;;;;;;;;5092843;28;20283;-76
2022/04/09 06:28:14;;;;;;;73.65;12.05;;;;;;;;;;5091706;28;20226;-76
2022/04/09 06:30:42;;;;;;;67.95;10.35;;;;;;;;;;5090204;28;20555;-73
2022/04/09 06:33:10;;;;;;;69.20;11.00;;;;;;;;;;5071383;28;20208;-76
2022/04/09 06:35:37;;;;;;;71.68;11.18;;;;;;;;;;5072269;28;20205;-77
2022/04/09 06:38:05;;;;;;;67.30;10.88;;;;;;;;;;5071595;28;20233;-76
2022/04/09 06:40:32;;;;;;;71.65;10.82;;;;;;;;;;5072317;28;20211;-75
2022/04/09 06:42:59;;;;;;;72.90;11.10;;;;;;;;;;5071796;28;20677;-76
2022/04/09 06:45:26;;;;;;;68.90;10.63;;;;;;;;;;5071861;28;20204;-74
2022/04/09 06:47:53;;;;;;;67.50;10.10;;;;;;;;;;5070856;28;20227;-76
2022/04/09 06:50:21;;;;;;;66.72;9.85;;;;;;;;;;5071863;28;20213;-75
2022/04/09 06:52:49;;;;;;;67.00;10.57;;;;;;;;;;5071821;28;20224;-76
2022/04/09 06:55:16;;;;;;;67.25;9.60;;;;;;;;;;5071823;28;20669;-76
2022/04/09 06:57:44;;;;;;;68.10;10.13;;;;;;;;;;5071003;28;20224;-76
2022/04/09 07:00:12;;;;;;;70.53;10.57;;;;;;;;;;5071465;28;20208;-75
2022/04/09 07:02:39;;;;;;;71.57;9.75;;;;;;;;;;5071192;28;20204;-76
2022/04/09 07:05:06;;;;;;;66.65;9.95;;;;;;;;;;5091976;28;20232;-76
2022/04/09 07:07:35;;;;;;;70.35;10.05;;;;;;;;;;5091127;28;20224;-76
2022/04/09 07:10:06;;;;;;;64.30;8.40;;;;;;;;;;5091957;28;20321;-73
2022/04/09 07:12:34;;;;;;;64.95;8.77;;;;;;;;;;5093232;28;20296;-75
2022/04/09 07:15:01;;;;;;;65.70;8.93;;;;;;;;;;5091531;28;20226;-76
2022/04/09 07:17:29;;;;;;;68.65;8.68;;;;;;;;;;5091927;28;20319;-76
2022/04/09 07:19:58;;;;;;;68.93;10.05;;;;;;;;;;5095783;28;20614;-76
2022/04/09 07:22:25;;;;;;;66.97;8.00;;;;;;;;;;5099576;28;20638;-74
2022/04/09 07:24:55;;;;;;;72.70;9.15;;;;;;;;;;5103376;28;20206;-76
2022/04/09 07:27:22;;;;;;;65.60;7.82;;;;;;;;;;5095007;28;20247;-76
2022/04/09 07:29:49;;;;;;;64.80;7.78;;;;;;;;;;5091840;28;20645;-75
2022/04/09 07:32:17;;;;;;;65.10;7.30;;;;;;;;;;5095603;28;20210;-76
2022/04/09 07:34:44;;;;;;;65.47;7.68;;;;;;;;;;5095220;28;20288;-75
2022/04/09 07:37:11;;;;;;;63.95;6.85;;;;;;;;;;5094683;28;20295;-75
2022/04/09 07:39:38;;;;;;;66.63;7.85;;;;;;;;;;5095381;28;20271;-75
2022/04/09 07:42:07;;;;;;;65.60;8.27;;;;;;;;;;5095196;28;20244;-75
2022/04/09 07:44:34;;;;;;;66.05;7.85;;;;;;;;;;5095087;28;20247;-76
2022/04/09 07:47:01;;;;;;;66.35;7.78;;;;;;;;;;5095341;28;20206;-75
2022/04/09 07:49:29;;;;;;;66.05;7.85;;;;;;;;;;5094367;28;20680;-76
2022/04/09 07:51:56;;;;;;;68.18;8.07;;;;;;;;;;5095225;28;20204;-74
2022/04/09 07:54:24;;;;;;;62.65;6.68;;;;;;;;;;5095155;28;20210;-75
2022/04/09 07:56:51;;;;;;;63.97;7.60;;;;;;;;;;5094897;28;20299;-74
2022/04/09 07:59:19;;;;;;;62.83;6.57;;;;;;;;;;5093366;28;20319;-75
2022/04/09 08:01:47;;;;;;;63.30;6.78;;;;;;;;;;5092084;28;20210;-75
2022/04/09 08:04:14;;;;;;;63.08;6.45;;;;;;;;;;5094983;28;20204;-75
2022/04/09 08:06:41;;;;;;;69.85;7.78;;;;;;;;;;5095029;28;20236;-76
2022/04/09 08:09:08;;;;;;;64.68;6.22;;;;;;;;;;5094114;28;20238;-74
2022/04/09 08:11:35;;;;;;;63.70;6.35;;;;;;;;;;5094572;28;20237;-75
2022/04/09 08:14:02;;;;;;;62.53;6.03;;;;;;;;;;5094810;28;20299;-76
2022/04/09 08:16:31;;;;;;;63.83;6.65;;;;;;;;;;5094811;28;20299;-76
2022/04/09 08:19:00;;;;;;;63.35;5.80;;;;;;;;;;5094302;28;20694;-75
2022/04/09 08:21:28;;;;;;;64.38;6.75;;;;;;;;;;5094679;28;20231;-76
2022/04/09 08:23:55;;;;;;;66.72;6.80;;;;;;;;;;5094486;28;20239;-74
2022/04/09 08:26:22;;;;;;;62.20;6.63;;;;;;;;;;5094778;28;20235;-74
2022/04/09 08:28:49;;;;;;;66.25;6.68;;;;;;;;;;5093366;28;20267;-75
2022/04/09 08:31:16;;;;;;;63.67;6.93;;;;;;;;;;5092970;28;20204;-73
2022/04/09 08:33:45;;;;;;;63.90;6.57;;;;;;;;;;5092459;28;20208;-75
2022/04/09 08:36:13;;;;;;;65.40;6.93;;;;;;;;;;5094270;28;20673;-74
2022/04/09 08:38:41;;;;;;;65.60;6.18;;;;;;;;;;5093303;28;20226;-75
2022/04/09 08:41:08;;;;;;;62.42;6.15;;;;;;;;;;5094434;28;20291;-74
2022/04/09 08:43:36;;;;;;;64.05;5.80;;;;;;;;;;5094481;28;20232;-75
2022/04/09 08:46:03;;;;;;;66.65;6.00;;;;;;;;;;5093873;28;20211;-75
2022/04/09 08:48:31;;;;;;;64.50;6.50;;;;;;;;;;5093795;28;20278;-74
2022/04/09 08:51:00;;;;;;;64.78;6.90;;;;;;;;;;5095483;28;20234;-74
2022/04/09 08:53:28;;;;;;;66.55;6.47;;;;;;;;;;5081377;28;20209;-72
2022/04/09 08:55:55;;;;;;;68.07;7.60;;;;;;;;;;5075133;28;20239;-75
2022/04/09 08:58:22;;;;;;;66.70;6.15;;;;;;;;;;5073520;28;20229;-75
2022/04/09 09:00:49;;;;;;;62.50;6.07;;;;;;;;;;5074046;28;20232;-76
2022/04/09 09:03:16;;;;;;;63.05;6.38;;;;;;;;;;5075025;28;20205;-76
2022/04/09 09:05:45;;;;;;;63.50;6.03;;;;;;;;;;5073861;28;20295;-75
2022/04/09 09:08:14;;;;;;;66.32;6.25;;;;;;;;;;5073110;28;20226;-75
2022/04/09 09:10:42;;;;;;;69.82;7.72;;;;;;;;;;5073919;28;20301;-76
2022/04/09 09:13:10;;;;;;;66.10;6.13;;;;;;;;;;5073135;28;20203;-76
2022/04/09 09:15:47;;;;;;;64.50;6.80;;;;;;;;;;5073425;28;20633;-75
2022/04/09 09:18:19;;;;;;;69.00;6.28;;;;;;;;;;5072604;28;20251;-75
2022/04/09 09:20:49;;;;;;;63.10;5.85;;;;;;;;;;5073368;28;20546;-73
2022/04/09 09:23:21;;;;;;;66.63;6.30;;;;;;;;;;5073312;28;20209;-73
2022/04/09 09:25:49;;;;;;;66.22;6.30;;;;;;;;;;5083074;28;20588;-75
2022/04/09 09:28:23;;;;;;;64.68;6.55;;;;;;;;;;5093123;28;20606;-74
2022/04/09 09:30:50;;;;;;;68.10;6.40;;;;;;;;;;5094048;28;20312;-74
2022/04/09 09:33:18;;;;;;;63.58;6.03;;;;;;;;;;5093897;28;20448;-75
2022/04/09 09:36:04;;;;;;;63.22;4.80;;;;;;;;;;5093771;28;20206;-76
2022/04/09 09:38:34;;;;;;;64.95;7.05;;;;;;;;;;5029776;28;20227;-75
2022/04/09 09:41:03;;;;;;;64.30;5.90;;;;;;;;;;5029366;28;20204;-74
2022/04/09 09:43:31;;;;;;;64.17;5.60;;;;;;;;;;5030308;28;20456;-75
2022/04/09 09:45:59;;;;;;;65.50;5.77;;;;;;;;;;5030428;28;20563;-75
2022/04/09 09:48:27;;;;;;;61.57;5.40;;;;;;;;;;5029672;28;20520;-75
2022/04/09 09:50:54;;;;;;;62.63;5.40;;;;;;;;;;5030480;28;20539;-72
2022/04/09 09:53:29;;;;;;;61.20;5.10;;;;;;;;;;5033366;28;20444;-72
2022/04/09 09:55:58;;;;;;;62.87;4.70;;;;;;;;;;5031984;28;20512;-74
2022/04/09 09:58:26;;;;;;;64.20;5.60;;;;;;;;;;5030241;28;20526;-75
2022/04/09 10:00:55;;;;;;;62.97;5.60;;;;;;;;;;5032835;28;20457;-75
2022/04/09 10:03:22;;;;;;;63.27;5.00;;;;;;;;;;5027075;28;20469;-75
2022/04/09 10:05:50;;;;;;;62.70;4.33;;;;;;;;;;5030762;28;20992;-72
2022/04/09 10:08:17;;;;;;;63.77;5.50;;;;;;;;;;5030266;28;20528;-73
2022/04/09 10:10:48;;;;;;;63.37;5.30;;;;;;;;;;5030506;28;20441;-72
2022/04/09 10:13:20;;;;;;;62.57;5.60;;;;;;;;;;5031923;28;20464;-75
2022/04/09 10:15:50;;;;;;;64.70;5.50;;;;;;;;;;5052356;28;20978;-76
2022/04/09 10:18:21;;;;;;;61.13;4.23;;;;;;;;;;5073963;28;20475;-74
2022/04/09 10:20:50;;;;;;;62.30;4.60;;;;;;;;;;5074090;28;20488;-74
2022/04/09 10:23:17;;;;;;;61.27;4.27;;;;;;;;;;5073191;28;20539;-76
2022/04/09 10:25:46;;;;;;;63.53;5.73;;;;;;;;;;5072227;28;20539;-76
2022/04/09 10:28:13;;;;;;;61.83;4.80;;;;;;;;;;5071395;28;20532;-73
2022/04/09 10:30:43;;;;;;;60.33;4.43;;;;;;;;;;5090936;28;20447;-76
2022/04/09 10:33:22;;;;;;;61.77;4.30;;;;;;;;;;5091347;28;20548;-75
2022/04/09 10:35:49;;;;;;;60.60;3.90;;;;;;;;;;5090889;28;20454;-76
2022/04/09 10:38:20;;;;;;;67.23;5.10;;;;;;;;;;5091521;28;20568;-75
2022/04/09 10:41:06;;;;;;;67.40;5.30;;;;;;;;;;5092503;28;20491;-76
2022/04/09 10:43:39;;;;;;;61.20;4.33;;;;;;;;;;5092094;28;20598;-75
2022/04/09 10:46:20;;;;;;;62.10;4.47;;;;;;;;;;5092316;28;20476;-74
2022/04/09 10:48:48;;;;;;;61.07;4.07;;;;;;;;;;5091444;28;20488;-75
2022/04/09 10:51:15;;;;;;;61.20;4.50;;;;;;;;;;5092267;28;20461;-75
2022/04/09 10:53:43;;;;;;;63.50;3.80;;;;;;;;;;5091296;28;20478;-76
2022/04/09 10:56:14;;;;;;;61.30;4.20;;;;;;;;;;5091847;28;20443;-75
2022/04/09 10:59:16;;;;;;;60.13;3.63;;;;;;;;;;5090466;28;20546;-76
2022/04/09 11:01:51;;;;;;;59.40;3.27;;;;;;;;;;5026245;28;20841;-76
2022/04/09 11:04:37;;;;;;;59.97;3.70;;;;;;;;;;5029168;28;20537;-76
2022/04/09 11:07:05;;;;;;;60.43;3.70;;;;;;;;;;5031517;28;20453;-72
2022/04/09 11:09:45;;;;;;;63.47;3.97;;;;;;;;;;5034785;28;20532;-74
2022/04/09 11:12:13;;;;;;;66.03;4.13;;;;;;;;;;5034900;28;20449;-75
2022/04/09 11:14:44;;;;;;;59.73;3.83;;;;;;;;;;5038358;28;20534;-75
2022/04/09 11:17:26;;;;;;;63.90;5.03;;;;;;;;;;5037876;28;20441;-75
2022/04/09 11:19:53;;;;;;;60.00;3.70;;;;;;;;;;5036759;28;20943;-76
2022/04/09 11:22:20;;;;;;;63.30;4.60;;;;;;;;;;5037891;28;20505;-75
2022/04/09 11:24:48;;;;;;;67.60;4.67;;;;;;;;;;5046416;28;20450;-72
2022/04/09 11:27:15;;;;;;;60.50;3.80;;;;;;;;;;5043673;28;20533;-76
2022/04/09 11:29:43;;;;;;;62.30;4.17;;;;;;;;;;5043734;28;20484;-75
2022/04/09 11:32:19;;;;;;;62.03;4.30;;;;;;;;;;5064321;28;20487;-74
2022/04/09 11:34:51;;;;;;;64.93;4.20;;;;;;;;;;5100364;28;20476;-75
2022/04/09 11:37:18;;;;;;;61.90;4.10;;;;;;;;;;5095702;28;20540;-75
2022/04/09 11:39:46;;;;;;;65.43;4.10;;;;;;;;;;5099136;28;21013;-75
2022/04/09 11:42:14;;;;;;;61.93;4.77;;;;;;;;;;5098711;28;20482;-75
2022/04/09 11:44:41;;;;;;;61.43;3.70;;;;;;;;;;5099376;28;20522;-75
2022/04/09 11:47:09;;;;;;;60.27;4.30;;;;;;;;;;5097636;28;20561;-73
2022/04/09 11:49:36;;;;;;;64.10;4.47;;;;;;;;;;5093749;28;20454;-76
2022/04/09 11:52:06;;;;;;;61.63;4.10;;;;;;;;;;5093749;28;20451;-77
2022/04/09 11:54:33;;;;;;;61.07;4.10;;;;;;;;;;5095555;28;21290;-76
2022/04/09 11:57:00;;;;;;;59.27;3.50;;;;;;;;;;5092874;28;20448;-75
2022/04/09 11:59:28;;;;;;;59.97;3.70;;;;;;;;;;5092115;28;20514;-75
2022/04/09 12:01:56;;;;;;;59.57;4.00;;;;;;;;;;5092974;28;20462;-75
2022/04/09 12:04:23;;;;;;;64.00;4.53;;;;;;;;;;5094627;28;20443;-75
2022/04/09 12:06:51;;;;;;;61.30;4.30;;;;;;;;;;5095526;28;20453;-76
2022/04/09 12:09:21;;;;;;;60.57;3.97;;;;;;;;;;5075290;28;20826;-75
2022/04/09 12:11:52;;;;;;;62.97;4.17;;;;;;;;;;5075313;28;20497;-76
2022/04/09 12:14:21;;;;;;;66.53;3.80;;;;;;;;;;5074868;28;20573;-76
2022/04/09 12:16:48;;;;;;;62.30;4.80;;;;;;;;;;5074991;28;20453;-74
2022/04/09 12:19:15;;;;;;;62.47;4.10;;;;;;;;;;5073237;28;21068;-74
2022/04/09 12:21:43;;;;;;;63.37;4.43;;;;;;;;;;5074816;28;20484;-75
2022/04/09 12:24:11;;;;;;;62.23;4.47;;;;;;;;;;5074417;28;20449;-75
2022/04/09 12:26:40;;;;;;;63.57;4.07;;;;;;;;;;5074436;28;20456;-75
2022/04/09 12:29:12;;;;;;;60.07;3.93;;;;;;;;;;5074652;28;21158;-74
2022/04/09 12:31:40;;;;;;;62.27;4.00;;;;;;;;;;5074730;28;20505;-74
2022/04/09 12:34:07;;;;;;;59.60;3.40;;;;;;;;;;5075140;28;20456;-75
2022/04/09 12:36:36;;;;;;;61.13;3.77;;;;;;;;;;5075105;28;20477;-75
2022/04/09 12:39:18;;;;;;;61.60;3.83;;;;;;;;;;5075812;28;21003;-73
2022/04/09 12:41:48;;;;;;;63.80;4.47;;;;;;;;;;5095373;28;20450;-76
2022/04/09 12:44:30;;;;;;;63.47;4.10;;;;;;;;;;5095353;28;20994;-75
2022/04/09 12:46:57;;;;;;;61.37;4.10;;;;;;;;;;5092593;28;20459;-75
2022/04/09 12:49:28;;;;;;;59.87;4.20;;;;;;;;;;5093725;28;20537;-75
2022/04/09 12:51:55;;;;;;;59.87;3.63;;;;;;;;;;5094647;28;20958;-75
2022/04/09 12:54:22;;;;;;;61.30;4.00;;;;;;;;;;5094551;28;20453;-75
2022/04/09 12:56:51;;;;;;;60.60;3.23;;;;;;;;;;5094707;28;20530;-75
2022/04/09 12:59:18;;;;;;;64.70;3.80;;;;;;;;;;5093511;28;20502;-74
2022/04/09 13:01:45;;;;;;;61.63;3.40;;;;;;;;;;5094637;28;21019;-75
2022/04/09 13:04:13;;;;;;;62.93;4.30;;;;;;;;;;5094360;28;20449;-73
2022/04/09 13:06:40;;;;;;;63.10;3.70;;;;;;;;;;5094164;28;21156;-75
2022/04/09 13:09:09;;;;;;;60.27;3.77;;;;;;;;;;5093331;28;20917;-74
2022/04/09 13:11:36;;;;;;;60.60;3.70;;;;;;;;;;5076718;28;20458;-74
2022/04/09 13:14:05;;;;;;;58.80;3.77;;;;;;;;;;5075694;28;20987;-75
2022/04/09 13:16:32;;;;;;;62.00;3.83;;;;;;;;;;5076457;28;20485;-76
2022/04/09 13:18:59;;;;;;;62.40;3.50;;;;;;;;;;5074467;28;20502;-75
2022/04/09 13:21:27;;;;;;;64.10;4.20;;;;;;;;;;5074110;28;20573;-75
2022/04/09 13:23:54;;;;;;;61.50;3.70;;;;;;;;;;5074189;28;20522;-75
2022/04/09 13:26:21;;;;;;;61.60;4.00;;;;;;;;;;5074226;28;20509;-74
2022/04/09 13:28:49;;;;;;;61.60;3.40;;;;;;;;;;5073883;28;20503;-75
2022/04/09 13:31:18;;;;;;;65.50;3.87;;;;;;;;;;5075734;28;20452;-76
2022/04/09 13:33:45;;;;;;;62.70;3.33;;;;;;;;;;5075899;28;20540;-75
2022/04/09 13:36:12;;;;;;;60.20;3.23;;;;;;;;;;5073468;28;20483;-75
2022/04/09 13:38:39;;;;;;;61.20;4.10;;;;;;;;;;5072717;28;20552;-76
2022/04/09 13:41:07;;;;;;;61.37;3.47;;;;;;;;;;5071759;28;20482;-76
2022/04/09 13:43:34;;;;;;;59.40;3.97;;;;;;;;;;5093402;28;20541;-75
2022/04/09 13:46:01;;;;;;;62.20;3.80;;;;;;;;;;5093182;28;20442;-76
2022/04/09 13:48:30;;;;;;;60.60;3.60;;;;;;;;;;5092513;28;20481;-76
2022/04/09 13:50:57;;;;;;;63.40;3.67;;;;;;;;;;5093928;28;20482;-75
2022/04/09 13:53:24;;;;;;;59.60;3.63;;;;;;;;;;5092988;28;20534;-76
2022/04/09 13:55:51;;;;;;;62.83;4.37;;;;;;;;;;5093159;28;20447;-75
2022/04/09 13:58:18;;;;;;;61.80;3.67;;;;;;;;;;5092310;28;20470;-75
2022/04/09 14:00:45;;;;;;;58.80;3.43;;;;;;;;;;5093785;28;20478;-75
2022/04/09 14:03:12;;;;;;;61.43;4.50;;;;;;;;;;5096057;28;20539;-75
2022/04/09 14:05:41;;;;;;;59.80;3.53;;;;;;;;;;5092561;28;20821;-76
2022/04/09 14:08:08;;;;;;;61.30;3.30;;;;;;;;;;5092072;28;20463;-75
2022/04/09 14:10:35;;;;;;;60.33;4.20;;;;;;;;;;5092780;28;20448;-75
2022/04/09 14:13:03;;;;;;;59.30;3.77;;;;;;;;;;5089656;28;20458;-75
2022/04/09 14:15:30;;;;;;;60.50;3.63;;;;;;;;;;5092676;28;20704;-75
2022/04/09 14:17:57;;;;;;;62.67;4.07;;;;;;;;;;5091772;28;20471;-75
2022/04/09 14:20:24;;;;;;;62.80;3.67;;;;;;;;;;5093725;28;20486;-75
2022/04/09 14:22:53;;;;;;;62.90;3.83;;;;;;;;;;5092719;28;20449;-75
2022/04/09 14:25:20;;;;;;;60.37;3.30;;;;;;;;;;5092661;28;20493;-75
2022/04/09 14:27:47;;;;;;;60.80;3.60;;;;;;;;;;5092055;28;20477;-75
2022/04/09 14:30:14;;;;;;;59.80;3.80;;;;;;;;;;5093133;28;20983;-74
2022/04/09 14:32:42;;;;;;;61.83;3.70;;;;;;;;;;5092848;28;20524;-75
2022/04/09 14:35:10;;;;;;;59.57;3.20;;;;;;;;;;5092342;28;20968;-74
2022/04/09 14:37:37;;;;;;;60.23;4.07;;;;;;;;;;5091684;28;20479;-74